createdAt,value
2024-04-02T00:08:21.207Z,14.3
2024-04-02T00:38:21.616Z,14.3
2024-04-02T01:08:22.356Z,14.2
2024-04-02T01:38:22.780Z,14.2
2024-04-02T02:08:23.207Z,14.2
2024-04-02T02:38:23.674Z,14.2
2024-04-02T03:08:24.134Z,14.2
2024-04-02T03:38:24.541Z,14.1
2024-04-02T04:08:24.973Z,14.1
2024-04-02T04:38:35.738Z,14.1
2024-04-02T05:08:36.167Z,14.1
2024-04-02T05:38:47.085Z,14.2
2024-04-02T06:08:47.470Z,14.1
2024-04-02T06:38:47.956Z,14.1
2024-04-02T07:08:48.525Z,14
2024-04-02T07:38:53.222Z,14.1
2024-04-02T08:08:53.636Z,14
2024-04-02T08:38:54.352Z,13.9
2024-04-02T09:08:54.794Z,14.1
2024-04-02T09:38:55.246Z,14.2
2024-04-02T10:08:55.640Z,14.3
2024-04-02T10:38:56.088Z,14.4
2024-04-02T11:08:56.584Z,14.5
2024-04-02T11:38:57.009Z,14.6
2024-04-02T12:09:07.419Z,14.6
2024-04-02T12:39:07.859Z,14.7
2024-04-02T13:09:18.543Z,14.7
2024-04-02T13:39:18.982Z,14.7
2024-04-02T14:09:19.743Z,14.8
2024-04-02T14:39:20.251Z,14.9
2024-04-02T15:09:27.545Z,14.8
2024-04-02T15:39:28.034Z,14.8
2024-04-02T16:09:28.452Z,14.7
2024-04-02T16:39:28.923Z,14.7
2024-04-02T17:09:29.385Z,14.7
2024-04-02T17:39:29.837Z,14.6
2024-04-02T18:09:30.398Z,14.5
2024-04-02T18:39:43.168Z,14.4
2024-04-02T19:09:43.590Z,14.4
2024-04-02T19:39:54.022Z,14.4
2024-04-02T20:09:54.479Z,14.4
2024-04-02T20:39:54.919Z,14.3
2024-04-02T21:09:55.725Z,14.3
2024-04-02T21:39:58.559Z,14.3
2024-04-02T22:09:58.967Z,14.2
2024-04-02T22:39:59.558Z,14.3
2024-04-02T23:09:59.946Z,14.2
2024-04-02T23:40:00.528Z,14.2
